sensor_id;sensor_type;location;lat;lon;timestamp;pressure;altitude;pressure_sealevel;temperature;humidity
65131;BME280;51709;54.912;8.316;2023-02-20T00:01:54;101471.19;;;5.93;81.90
65131;BME280;51709;54.912;8.316;2023-02-20T00:07:15;101461.00;;;5.95;82.00
65131;BME280;51709;54.912;8.316;2023-02-20T00:12:36;101431.31;;;5.98;82.22
65131;BME280;51709;54.912;8.316;2023-02-20T00:17:57;101399.97;;;6.06;82.12
65131;BME280;51709;54.912;8.316;2023-02-20T00:23:17;101390.69;;;6.15;81.81
65131;BME280;51709;54.912;8.316;2023-02-20T00:28:40;101372.00;;;6.15;81.72
65131;BME280;51709;54.912;8.316;2023-02-20T00:34:02;101372.03;;;6.18;81.79
65131;BME280;51709;54.912;8.316;2023-02-20T00:53:08;101361.78;;;6.09;82.38
65131;BME280;51709;54.912;8.316;2023-02-20T00:58:30;101360.09;;;6.14;82.43
65131;BME280;51709;54.912;8.316;2023-02-20T01:03:51;101372.00;;;6.15;82.58
65131;BME280;51709;54.912;8.316;2023-02-20T01:09:12;101389.84;;;6.15;82.65
65131;BME280;51709;54.912;8.316;2023-02-20T01:14:34;101425.53;;;6.18;82.82
65131;BME280;51709;54.912;8.316;2023-02-20T01:19:55;101406.84;;;6.17;83.25
65131;BME280;51709;54.912;8.316;2023-02-20T01:25:15;101420.44;;;6.16;83.75
65131;BME280;51709;54.912;8.316;2023-02-20T01:30:37;101436.63;;;6.23;83.76
65131;BME280;51709;54.912;8.316;2023-02-20T01:35:58;101424.72;;;6.25;84.05
65131;BME280;51709;54.912;8.316;2023-02-20T01:41:18;101417.09;;;6.30;84.11
65131;BME280;51709;54.912;8.316;2023-02-20T01:46:41;101394.16;;;6.28;84.05
65131;BME280;51709;54.912;8.316;2023-02-20T01:52:11;101379.75;;;6.29;84.20
65131;BME280;51709;54.912;8.316;2023-02-20T01:57:36;101367.03;;;6.34;84.12
65131;BME280;51709;54.912;8.316;2023-02-20T02:03:02;101320.28;;;6.36;84.03
65131;BME280;51709;54.912;8.316;2023-02-20T02:08:25;101300.78;;;6.43;83.90
65131;BME280;51709;54.912;8.316;2023-02-20T02:13:48;101267.63;;;6.46;83.82
65131;BME280;51709;54.912;8.316;2023-02-20T02:19:15;101243.00;;;6.50;83.71
65131;BME280;51709;54.912;8.316;2023-02-20T02:47:50;101216.69;;;6.68;83.20
65131;BME280;51709;54.912;8.316;2023-02-20T02:53:16;101231.97;;;6.66;83.34
65131;BME280;51709;54.912;8.316;2023-02-20T02:58:37;101201.34;;;6.66;83.29
65131;BME280;51709;54.912;8.316;2023-02-20T03:03:58;101199.66;;;6.62;83.49
65131;BME280;51709;54.912;8.316;2023-02-20T03:09:27;101197.97;;;6.64;83.32
65131;BME280;51709;54.912;8.316;2023-02-20T03:15:09;101192.84;;;6.59;83.59
65131;BME280;51709;54.912;8.316;2023-02-20T03:20:53;101163.97;;;6.62;83.38
65131;BME280;51709;54.912;8.316;2023-02-20T03:26:18;101164.78;;;6.59;83.52
65131;BME280;51709;54.912;8.316;2023-02-20T03:31:50;101165.66;;;6.57;83.60
65131;BME280;51709;54.912;8.316;2023-02-20T03:37:33;101145.25;;;6.55;83.58
65131;BME280;51709;54.912;8.316;2023-02-20T03:43:16;101141.88;;;6.56;83.67
65131;BME280;51709;54.912;8.316;2023-02-20T03:48:55;101113.78;;;6.55;83.74
65131;BME280;51709;54.912;8.316;2023-02-20T03:54:19;101113.81;;;6.58;83.73
65131;BME280;51709;54.912;8.316;2023-02-20T03:59:45;101102.75;;;6.59;83.69
65131;BME280;51709;54.912;8.316;2023-02-20T04:05:11;101091.72;;;6.60;83.67
65131;BME280;51709;54.912;8.316;2023-02-20T04:10:44;101084.91;;;6.59;83.73
65131;BME280;51709;54.912;8.316;2023-02-20T04:16:07;101081.50;;;6.60;83.73
65131;BME280;51709;54.912;8.316;2023-02-20T04:21:38;101078.94;;;6.54;83.87
65131;BME280;51709;54.912;8.316;2023-02-20T04:27:03;101073.84;;;6.61;83.73
65131;BME280;51709;54.912;8.316;2023-02-20T04:32:27;101061.94;;;6.60;83.64
65131;BME280;51709;54.912;8.316;2023-02-20T04:37:48;101028.81;;;6.59;83.74
65131;BME280;51709;54.912;8.316;2023-02-20T04:43:09;101040.69;;;6.57;83.77
65131;BME280;51709;54.912;8.316;2023-02-20T04:48:30;101026.25;;;6.54;83.86
65131;BME280;51709;54.912;8.316;2023-02-20T04:53:51;100993.13;;;6.51;84.04
65131;BME280;51709;54.912;8.316;2023-02-20T05:07:09;101005.84;;;6.48;84.10
65131;BME280;51709;54.912;8.316;2023-02-20T05:12:30;100993.13;;;6.46;84.05
65131;BME280;51709;54.912;8.316;2023-02-20T05:17:51;100992.28;;;6.46;84.16
65131;BME280;51709;54.912;8.316;2023-02-20T05:23:12;100991.44;;;6.41;84.37
65131;BME280;51709;54.912;8.316;2023-02-20T05:28:32;101014.38;;;6.44;84.58
65131;BME280;51709;54.912;8.316;2023-02-20T05:33:53;100982.06;;;6.44;84.63
65131;BME280;51709;54.912;8.316;2023-02-20T05:39:14;100986.31;;;6.47;84.55
65131;BME280;51709;54.912;8.316;2023-02-20T05:44:36;100971.84;;;6.54;84.48
65131;BME280;51709;54.912;8.316;2023-02-20T05:49:56;100972.72;;;6.54;84.55
65131;BME280;51709;54.912;8.316;2023-02-20T05:55:17;100970.16;;;6.51;84.77
65131;BME280;51709;54.912;8.316;2023-02-20T06:00:38;100975.28;;;6.51;84.68
65131;BME280;51709;54.912;8.316;2023-02-20T06:05:59;100981.22;;;6.52;84.77
65131;BME280;51709;54.912;8.316;2023-02-20T06:11:19;100971.88;;;6.51;85.06
65131;BME280;51709;54.912;8.316;2023-02-20T06:16:39;100950.63;;;6.52;84.89
65131;BME280;51709;54.912;8.316;2023-02-20T06:22:00;100959.13;;;6.52;85.01
65131;BME280;51709;54.912;8.316;2023-02-20T06:27:21;100948.94;;;6.51;85.13
65131;BME280;51709;54.912;8.316;2023-02-20T06:32:41;100953.13;;;6.59;85.11
65131;BME280;51709;54.912;8.316;2023-02-20T06:38:02;100931.91;;;6.59;85.28
65131;BME280;51709;54.912;8.316;2023-02-20T06:43:22;100918.28;;;6.65;85.27
65131;BME280;51709;54.912;8.316;2023-02-20T06:48:48;100934.41;;;6.65;85.37
65131;BME280;51709;54.912;8.316;2023-02-20T06:54:11;100922.50;;;6.70;85.27
65131;BME280;51709;54.912;8.316;2023-02-20T06:59:32;100951.41;;;6.80;85.51
65131;BME280;51709;54.912;8.316;2023-02-20T07:04:59;100938.59;;;6.92;85.05
65131;BME280;51709;54.912;8.316;2023-02-20T07:10:19;100946.22;;;7.02;85.41
65131;BME280;51709;54.912;8.316;2023-02-20T07:15:39;100934.28;;;7.05;85.31
65131;BME280;51709;54.912;8.316;2023-02-20T07:21:00;100934.28;;;7.04;85.36
65131;BME280;51709;54.912;8.316;2023-02-20T07:26:27;100907.91;;;7.03;85.35
65131;BME280;51709;54.912;8.316;2023-02-20T07:31:48;100942.78;;;7.01;85.45
65131;BME280;51709;54.912;8.316;2023-02-20T07:37:08;100930.03;;;7.01;85.58
65131;BME280;51709;54.912;8.316;2023-02-20T07:42:28;100934.22;;;7.12;85.24
65131;BME280;51709;54.912;8.316;2023-02-20T07:47:59;100930.84;;;7.11;85.56
65131;BME280;51709;54.912;8.316;2023-02-20T07:53:20;100935.09;;;7.11;85.60
65131;BME280;51709;54.912;8.316;2023-02-20T07:58:41;100908.69;;;7.18;85.43
65131;BME280;51709;54.912;8.316;2023-02-20T08:04:02;100916.28;;;7.27;85.34
65131;BME280;51709;54.912;8.316;2023-02-20T08:09:23;100902.56;;;7.42;85.32
65131;BME280;51709;54.912;8.316;2023-02-20T08:14:44;100903.38;;;7.47;85.40
65131;BME280;51709;54.912;8.316;2023-02-20T08:20:17;100918.66;;;7.53;85.30
65131;BME280;51709;54.912;8.316;2023-02-20T08:25:39;100918.66;;;7.58;84.98
65131;BME280;51709;54.912;8.316;2023-02-20T08:31:02;100920.28;;;7.65;84.93
65131;BME280;51709;54.912;8.316;2023-02-20T08:36:22;100927.13;;;7.60;85.05
65131;BME280;51709;54.912;8.316;2023-02-20T08:41:46;100915.19;;;7.65;84.80
65131;BME280;51709;54.912;8.316;2023-02-20T08:47:11;100898.16;;;7.64;84.93
65131;BME280;51709;54.912;8.316;2023-02-20T08:52:32;100900.63;;;7.77;84.90
65131;BME280;51709;54.912;8.316;2023-02-20T08:57:53;100937.22;;;7.79;84.62
65131;BME280;51709;54.912;8.316;2023-02-20T09:03:18;100920.16;;;7.79;84.75
65131;BME280;51709;54.912;8.316;2023-02-20T09:08:39;100917.53;;;7.90;84.42
65131;BME280;51709;54.912;8.316;2023-02-20T09:14:01;100930.25;;;7.96;84.22
65131;BME280;51709;54.912;8.316;2023-02-20T09:19:24;100914.00;;;8.05;83.91
65131;BME280;51709;54.912;8.316;2023-02-20T09:24:49;100882.47;;;8.03;83.91
65131;BME280;51709;54.912;8.316;2023-02-20T09:30:14;100915.66;;;8.09;83.87
65131;BME280;51709;54.912;8.316;2023-02-20T09:35:46;100914.72;;;8.20;83.62
65131;BME280;51709;54.912;8.316;2023-02-20T09:41:22;100918.81;;;8.35;83.32
65131;BME280;51709;54.912;8.316;2023-02-20T09:46:46;100904.91;;;8.59;82.73
65131;BME280;51709;54.912;8.316;2023-02-20T09:52:12;100902.38;;;8.60;82.42
65131;BME280;51709;54.912;8.316;2023-02-20T09:57:35;100905.81;;;8.56;82.34
65131;BME280;51709;54.912;8.316;2023-02-20T10:03:21;100924.66;;;8.49;82.63
65131;BME280;51709;54.912;8.316;2023-02-20T10:08:46;100905.13;;;8.39;82.44
65131;BME280;51709;54.912;8.316;2023-02-20T10:19:55;100894.28;;;8.16;82.85
65131;BME280;51709;54.912;8.316;2023-02-20T10:25:28;100876.34;;;8.18;82.71
65131;BME280;51709;54.912;8.316;2023-02-20T10:30:57;100914.53;;;8.37;82.42
65131;BME280;51709;54.912;8.316;2023-02-20T10:36:39;100886.22;;;8.55;81.64
65131;BME280;51709;54.912;8.316;2023-02-20T10:42:22;100874.31;;;8.53;81.80
65131;BME280;51709;54.912;8.316;2023-02-20T10:47:56;100878.59;;;8.52;81.85
65131;BME280;51709;54.912;8.316;2023-02-20T10:53:44;100898.88;;;8.64;81.50
65131;BME280;51709;54.912;8.316;2023-02-20T11:04:36;100867.69;;;8.33;81.55
65131;BME280;51709;54.912;8.316;2023-02-20T11:09:58;100848.00;;;8.41;81.45
65131;BME280;51709;54.912;8.316;2023-02-20T11:15:30;100828.34;;;8.46;80.90
65131;BME280;51709;54.912;8.316;2023-02-20T11:20:52;100865.84;;;8.46;81.04
65131;BME280;51709;54.912;8.316;2023-02-20T11:26:24;100860.75;;;8.44;80.89
65131;BME280;51709;54.912;8.316;2023-02-20T11:31:46;100857.47;;;8.31;81.28
65131;BME280;51709;54.912;8.316;2023-02-20T11:37:11;100837.03;;;8.30;81.05
65131;BME280;51709;54.912;8.316;2023-02-20T11:42:33;100832.81;;;8.26;81.14
65131;BME280;51709;54.912;8.316;2023-02-20T11:48:18;100839.84;;;8.08;81.59
65131;BME280;51709;54.912;8.316;2023-02-20T11:53:40;100856.03;;;8.06;81.31
65131;BME280;51709;54.912;8.316;2023-02-20T11:59:26;100820.41;;;7.92;81.82
65131;BME280;51709;54.912;8.316;2023-02-20T12:05:10;100860.38;;;8.00;81.72
65131;BME280;51709;54.912;8.316;2023-02-20T12:10:44;100872.38;;;7.92;81.59
65131;BME280;51709;54.912;8.316;2023-02-20T12:16:25;100871.59;;;7.84;82.03
65131;BME280;51709;54.912;8.316;2023-02-20T12:22:17;100873.28;;;7.86;81.95
65131;BME280;51709;54.912;8.316;2023-02-20T12:27:48;100899.66;;;7.87;82.27
65131;BME280;51709;54.912;8.316;2023-02-20T12:33:32;100901.34;;;7.90;82.09
65131;BME280;51709;54.912;8.316;2023-02-20T12:39:22;100883.44;;;7.93;82.27
65131;BME280;51709;54.912;8.316;2023-02-20T12:44:58;100836.56;;;7.94;82.41
65131;BME280;51709;54.912;8.316;2023-02-20T12:50:42;100840.91;;;7.87;82.89
65131;BME280;51709;54.912;8.316;2023-02-20T12:56:26;100846.75;;;7.98;82.52
65131;BME280;51709;54.912;8.316;2023-02-20T13:01:51;100851.88;;;7.97;82.84
65131;BME280;51709;54.912;8.316;2023-02-20T13:07:18;100866.31;;;8.01;82.80
65131;BME280;51709;54.912;8.316;2023-02-20T13:12:41;100854.53;;;7.86;83.18
65131;BME280;51709;54.912;8.316;2023-02-20T13:18:26;100882.69;;;7.78;83.70
65131;BME280;51709;54.912;8.316;2023-02-20T13:24:11;100846.88;;;7.83;83.61
65131;BME280;51709;54.912;8.316;2023-02-20T13:29:57;100899.66;;;7.90;83.12
65131;BME280;51709;54.912;8.316;2023-02-20T13:35:54;100880.06;;;7.89;83.38
65131;BME280;51709;54.912;8.316;2023-02-20T13:41:15;100874.94;;;7.92;83.43
65131;BME280;51709;54.912;8.316;2023-02-20T13:52:47;100900.44;;;7.97;83.36
65131;BME280;51709;54.912;8.316;2023-02-20T13:58:14;100869.75;;;7.98;83.27
65131;BME280;51709;54.912;8.316;2023-02-20T14:03:35;100904.72;;;7.95;83.19
65131;BME280;51709;54.912;8.316;2023-02-20T14:09:23;100881.81;;;7.84;83.50
65131;BME280;51709;54.912;8.316;2023-02-20T14:14:47;100898.94;;;7.74;83.77
65131;BME280;51709;54.912;8.316;2023-02-20T14:20:18;100899.88;;;7.59;84.36
65131;BME280;51709;54.912;8.316;2023-02-20T14:25:39;100916.91;;;7.60;84.13
65131;BME280;51709;54.912;8.316;2023-02-20T14:31:27;100899.09;;;7.54;84.42
65131;BME280;51709;54.912;8.316;2023-02-20T14:37:11;100896.59;;;7.45;84.30
65131;BME280;51709;54.912;8.316;2023-02-20T14:42:36;100911.94;;;7.45;84.49
65131;BME280;51709;54.912;8.316;2023-02-20T14:47:59;100917.88;;;7.45;84.51
65131;BME280;51709;54.912;8.316;2023-02-20T14:53:20;100904.25;;;7.46;84.33
65131;BME280;51709;54.912;8.316;2023-02-20T14:58:42;100906.78;;;7.49;84.02
65131;BME280;51709;54.912;8.316;2023-02-20T15:04:26;100925.56;;;7.44;84.49
65131;BME280;51709;54.912;8.316;2023-02-20T15:09:46;100924.66;;;7.48;84.31
65131;BME280;51709;54.912;8.316;2023-02-20T15:15:11;100915.31;;;7.42;84.51
65131;BME280;51709;54.912;8.316;2023-02-20T15:25:54;100925.50;;;7.50;84.28
65131;BME280;51709;54.912;8.316;2023-02-20T15:31:20;100913.69;;;7.38;84.62
65131;BME280;51709;54.912;8.316;2023-02-20T15:36:43;100946.88;;;7.32;84.90
65131;BME280;51709;54.912;8.316;2023-02-20T15:42:09;100919.66;;;7.32;84.89
65131;BME280;51709;54.912;8.316;2023-02-20T15:47:30;100922.22;;;7.31;84.99
65131;BME280;51709;54.912;8.316;2023-02-20T15:52:50;100930.75;;;7.25;85.21
65131;BME280;51709;54.912;8.316;2023-02-20T15:58:40;100938.47;;;7.16;85.31
65131;BME280;51709;54.912;8.316;2023-02-20T16:04:14;100935.94;;;7.14;85.21
65131;BME280;51709;54.912;8.316;2023-02-20T16:09:35;100943.59;;;7.13;85.08
65131;BME280;51709;54.912;8.316;2023-02-20T16:14:56;100952.97;;;7.06;85.17
65131;BME280;51709;54.912;8.316;2023-02-20T16:20:20;100955.53;;;7.01;85.38
65131;BME280;51709;54.912;8.316;2023-02-20T16:25:41;100946.22;;;6.94;85.55
65131;BME280;51709;54.912;8.316;2023-02-20T16:31:01;100970.03;;;6.94;85.37
65131;BME280;51709;54.912;8.316;2023-02-20T16:36:22;100976.84;;;6.91;85.38
65131;BME280;51709;54.912;8.316;2023-02-20T16:41:44;100970.97;;;6.78;85.57
65131;BME280;51709;54.912;8.316;2023-02-20T16:47:08;100957.38;;;6.70;85.80
65131;BME280;51709;54.912;8.316;2023-02-20T16:52:37;100957.38;;;6.65;86.07
65131;BME280;51709;54.912;8.316;2023-02-20T16:57:59;100954.00;;;6.63;85.92
65131;BME280;51709;54.912;8.316;2023-02-20T17:03:22;100962.53;;;6.57;86.09
65131;BME280;51709;54.912;8.316;2023-02-20T17:08:42;100971.00;;;6.55;86.07
65131;BME280;51709;54.912;8.316;2023-02-20T17:14:03;100969.31;;;6.49;86.22
65131;BME280;51709;54.912;8.316;2023-02-20T17:19:24;100977.81;;;6.51;86.17
65131;BME280;51709;54.912;8.316;2023-02-20T17:24:44;100960.84;;;6.48;86.28
65131;BME280;51709;54.912;8.316;2023-02-20T17:30:06;100989.72;;;6.51;86.10
65131;BME280;51709;54.912;8.316;2023-02-20T17:35:27;101001.63;;;6.52;86.06
65131;BME280;51709;54.912;8.316;2023-02-20T17:40:48;101018.59;;;6.60;86.08
65131;BME280;51709;54.912;8.316;2023-02-20T17:46:08;101002.44;;;6.65;86.02
65131;BME280;51709;54.912;8.316;2023-02-20T17:51:29;101000.72;;;6.68;85.93
65131;BME280;51709;54.912;8.316;2023-02-20T17:56:50;101005.00;;;6.68;85.79
65131;BME280;51709;54.912;8.316;2023-02-20T18:02:12;101000.75;;;6.62;85.62
65131;BME280;51709;54.912;8.316;2023-02-20T18:07:34;101005.00;;;6.60;85.61
65131;BME280;51709;54.912;8.316;2023-02-20T18:12:54;101005.84;;;6.63;85.51
65131;BME280;51709;54.912;8.316;2023-02-20T18:18:25;101012.66;;;6.65;85.43
65131;BME280;51709;54.912;8.316;2023-02-20T18:23:46;101012.63;;;6.66;85.31
65131;BME280;51709;54.912;8.316;2023-02-20T18:29:07;101008.41;;;6.67;85.20
65131;BME280;51709;54.912;8.316;2023-02-20T18:34:28;101004.13;;;6.62;85.21
65131;BME280;51709;54.912;8.316;2023-02-20T18:39:50;100994.81;;;6.58;85.16
65131;BME280;51709;54.912;8.316;2023-02-20T18:45:11;101028.81;;;6.62;84.88
65131;BME280;51709;54.912;8.316;2023-02-20T18:50:32;101021.13;;;6.65;84.72
65131;BME280;51709;54.912;8.316;2023-02-20T18:55:53;101019.47;;;6.64;84.68
65131;BME280;51709;54.912;8.316;2023-02-20T19:01:15;101038.16;;;6.63;84.48
65131;BME280;51709;54.912;8.316;2023-02-20T19:06:42;101023.69;;;6.60;84.31
65131;BME280;51709;54.912;8.316;2023-02-20T19:12:06;101022.00;;;6.61;84.37
65131;BME280;51709;54.912;8.316;2023-02-20T19:17:27;101032.19;;;6.59;84.30
65131;BME280;51709;54.912;8.316;2023-02-20T19:22:48;101032.19;;;6.55;84.14
65131;BME280;51709;54.912;8.316;2023-02-20T19:28:08;101022.88;;;6.52;84.23
65131;BME280;51709;54.912;8.316;2023-02-20T19:33:31;101034.78;;;6.52;84.16
65131;BME280;51709;54.912;8.316;2023-02-20T19:38:51;101027.97;;;6.47;84.29
65131;BME280;51709;54.912;8.316;2023-02-20T19:44:13;101019.47;;;6.41;84.31
65131;BME280;51709;54.912;8.316;2023-02-20T19:49:44;101016.91;;;6.42;84.03
65131;BME280;51709;54.912;8.316;2023-02-20T19:55:05;100991.44;;;6.48;84.02
65131;BME280;51709;54.912;8.316;2023-02-20T20:00:29;101017.78;;;6.47;84.01
65131;BME280;51709;54.912;8.316;2023-02-20T20:05:50;100999.06;;;6.47;83.95
65131;BME280;51709;54.912;8.316;2023-02-20T20:11:11;101006.72;;;6.44;84.00
65131;BME280;51709;54.912;8.316;2023-02-20T20:16:32;100984.63;;;6.37;83.95
65131;BME280;51709;54.912;8.316;2023-02-20T20:21:54;100995.69;;;6.29;84.21
65131;BME280;51709;54.912;8.316;2023-02-20T20:27:15;100998.25;;;6.23;84.48
65131;BME280;51709;54.912;8.316;2023-02-20T20:32:39;100990.59;;;6.29;84.41
65131;BME280;51709;54.912;8.316;2023-02-20T20:38:01;101005.03;;;6.20;84.39
65131;BME280;51709;54.912;8.316;2023-02-20T20:43:22;100993.16;;;6.15;84.70
65131;BME280;51709;54.912;8.316;2023-02-20T20:48:43;101003.34;;;6.15;84.87
65131;BME280;51709;54.912;8.316;2023-02-20T20:54:04;101003.34;;;6.12;85.04
65131;BME280;51709;54.912;8.316;2023-02-20T20:59:27;101005.91;;;6.17;84.81
65131;BME280;51709;54.912;8.316;2023-02-20T21:04:48;101003.34;;;6.19;85.13
65131;BME280;51709;54.912;8.316;2023-02-20T21:10:15;101032.22;;;6.17;85.19
65131;BME280;51709;54.912;8.316;2023-02-20T21:15:36;101016.94;;;6.14;85.73
65131;BME280;51709;54.912;8.316;2023-02-20T21:20:56;101018.63;;;6.17;85.70
65131;BME280;51709;54.912;8.316;2023-02-20T21:26:17;101018.63;;;6.25;85.29
65131;BME280;51709;54.912;8.316;2023-02-20T21:31:45;101011.84;;;6.24;85.70
65131;BME280;51709;54.912;8.316;2023-02-20T21:37:06;101025.44;;;6.29;85.53
65131;BME280;51709;54.912;8.316;2023-02-20T21:42:27;101022.03;;;6.27;85.91
65131;BME280;51709;54.912;8.316;2023-02-20T21:48:07;101000.81;;;6.15;85.98
65131;BME280;51709;54.912;8.316;2023-02-20T21:53:27;101011.00;;;6.17;85.68
65131;BME280;51709;54.912;8.316;2023-02-20T21:58:58;101003.34;;;6.17;86.04
65131;BME280;51709;54.912;8.316;2023-02-20T22:04:25;101005.91;;;6.25;85.90
65131;BME280;51709;54.912;8.316;2023-02-20T22:09:48;101050.06;;;6.27;85.89
65131;BME280;51709;54.912;8.316;2023-02-20T22:15:29;101015.22;;;6.20;86.00
65131;BME280;51709;54.912;8.316;2023-02-20T22:21:16;101015.25;;;6.18;86.02
65131;BME280;51709;54.912;8.316;2023-02-20T22:26:55;101016.09;;;6.22;86.15
65131;BME280;51709;54.912;8.316;2023-02-20T22:32:35;101031.38;;;6.12;86.04
65131;BME280;51709;54.912;8.316;2023-02-20T22:38:15;101018.63;;;6.06;86.23
65131;BME280;51709;54.912;8.316;2023-02-20T22:43:54;101044.97;;;6.05;86.52
65131;BME280;51709;54.912;8.316;2023-02-20T22:49:33;101044.97;;;6.10;86.38
65131;BME280;51709;54.912;8.316;2023-02-20T22:55:12;101041.56;;;6.12;86.33
65131;BME280;51709;54.912;8.316;2023-02-20T23:00:51;101051.75;;;6.17;86.31
65131;BME280;51709;54.912;8.316;2023-02-20T23:06:30;101060.25;;;6.13;86.59
65131;BME280;51709;54.912;8.316;2023-02-20T23:12:11;101053.47;;;6.20;86.20
65131;BME280;51709;54.912;8.316;2023-02-20T23:17:50;101078.09;;;6.28;86.14
65131;BME280;51709;54.912;8.316;2023-02-20T23:23:29;101082.34;;;6.29;86.19
65131;BME280;51709;54.912;8.316;2023-02-20T23:29:08;101074.72;;;6.32;86.18
65131;BME280;51709;54.912;8.316;2023-02-20T23:34:47;101067.06;;;6.36;86.26
65131;BME280;51709;54.912;8.316;2023-02-20T23:40:26;101093.41;;;6.36;86.26
65131;BME280;51709;54.912;8.316;2023-02-20T23:46:06;101088.31;;;6.39;86.42
65131;BME280;51709;54.912;8.316;2023-02-20T23:51:45;101070.44;;;6.42;86.23
65131;BME280;51709;54.912;8.316;2023-02-20T23:57:36;101082.38;;;6.45;86.32
